sensor_id;sensor_type;location;lat;lon;timestamp;pressure;altitude;pressure_sealevel;temperature;humidity
63343;BME280;49465;57.664;39.686;2022-12-11T00:02:16;100037.59;;;-0.93;62.08
63343;BME280;49465;57.664;39.686;2022-12-11T00:04:43;100041.00;;;-0.93;62.00
63343;BME280;49465;57.664;39.686;2022-12-11T00:07:12;100040.03;;;-0.87;62.44
63343;BME280;49465;57.664;39.686;2022-12-11T00:09:38;100035.03;;;-0.95;62.46
63343;BME280;49465;57.664;39.686;2022-12-11T00:12:05;100035.00;;;-0.92;62.13
63343;BME280;49465;57.664;39.686;2022-12-11T00:14:32;100023.78;;;-0.91;62.14
63343;BME280;49465;57.664;39.686;2022-12-11T00:16:59;100030.72;;;-0.93;62.48
63343;BME280;49465;57.664;39.686;2022-12-11T00:19:25;100029.91;;;-0.96;62.38
63343;BME280;49465;57.664;39.686;2022-12-11T00:21:54;100029.06;;;-0.97;62.16
63343;BME280;49465;57.664;39.686;2022-12-11T00:24:26;100023.66;;;-0.85;62.43
63343;BME280;49465;57.664;39.686;2022-12-11T00:26:52;100023.94;;;-0.97;61.91
63343;BME280;49465;57.664;39.686;2022-12-11T00:29:26;100024.47;;;-0.83;61.75
63343;BME280;49465;57.664;39.686;2022-12-11T00:31:53;100020.34;;;-0.90;61.61
63343;BME280;49465;57.664;39.686;2022-12-11T00:34:22;100018.75;;;-0.95;62.25
63343;BME280;49465;57.664;39.686;2022-12-11T00:36:51;100019.56;;;-0.93;61.94
63343;BME280;49465;57.664;39.686;2022-12-11T00:39:21;100015.88;;;-0.82;62.10
63343;BME280;49465;57.664;39.686;2022-12-11T00:41:49;100015.22;;;-0.91;61.92
63343;BME280;49465;57.664;39.686;2022-12-11T00:44:16;100023.78;;;-0.91;61.92
63343;BME280;49465;57.664;39.686;2022-12-11T00:46:47;100013.47;;;-0.16;60.50
63343;BME280;49465;57.664;39.686;2022-12-11T00:49:20;100015.63;;;-0.71;61.69
63343;BME280;49465;57.664;39.686;2022-12-11T00:51:46;100013.25;;;-0.07;60.09
63343;BME280;49465;57.664;39.686;2022-12-11T00:54:15;100018.50;;;-0.85;61.37
63343;BME280;49465;57.664;39.686;2022-12-11T00:56:44;100016.97;;;-0.92;61.83
63343;BME280;49465;57.664;39.686;2022-12-11T00:59:15;100006.19;;;-0.70;61.71
63343;BME280;49465;57.664;39.686;2022-12-11T01:01:44;100003.94;;;-0.12;60.01
63343;BME280;49465;57.664;39.686;2022-12-11T01:04:14;100006.28;;;-0.02;59.73
63343;BME280;49465;57.664;39.686;2022-12-11T01:06:45;100004.19;;;-0.59;61.25
63343;BME280;49465;57.664;39.686;2022-12-11T01:09:16;100002.94;;;-0.78;61.86
63343;BME280;49465;57.664;39.686;2022-12-11T01:12:01;100001.47;;;-0.90;61.92
63343;BME280;49465;57.664;39.686;2022-12-11T01:14:30;100000.47;;;-0.83;61.97
63343;BME280;49465;57.664;39.686;2022-12-11T01:16:59;99994.66;;;-0.93;61.85
63343;BME280;49465;57.664;39.686;2022-12-11T01:19:28;99989.59;;;-0.96;61.94
63343;BME280;49465;57.664;39.686;2022-12-11T01:21:57;99992.00;;;-0.15;60.12
63343;BME280;49465;57.664;39.686;2022-12-11T01:24:27;99984.72;;;-0.71;61.41
63343;BME280;49465;57.664;39.686;2022-12-11T01:26:56;99994.38;;;-0.79;61.61
63343;BME280;49465;57.664;39.686;2022-12-11T01:29:22;99998.88;;;-0.15;60.06
63343;BME280;49465;57.664;39.686;2022-12-11T01:31:54;100008.03;;;-0.75;61.20
63343;BME280;49465;57.664;39.686;2022-12-11T01:34:23;100009.91;;;-0.82;61.73
63343;BME280;49465;57.664;39.686;2022-12-11T01:36:52;100002.13;;;-0.81;61.49
63343;BME280;49465;57.664;39.686;2022-12-11T01:39:27;100005.63;;;-0.10;59.94
63343;BME280;49465;57.664;39.686;2022-12-11T01:41:58;100001.81;;;-0.67;61.21
63343;BME280;49465;57.664;39.686;2022-12-11T01:46:54;100000.41;;;-0.80;61.40
63343;BME280;49465;57.664;39.686;2022-12-11T01:49:27;100001.31;;;-0.83;61.50
63343;BME280;49465;57.664;39.686;2022-12-11T01:52:15;99993.16;;;-0.63;61.86
63343;BME280;49465;57.664;39.686;2022-12-11T01:54:47;99999.84;;;-0.94;61.59
63343;BME280;49465;57.664;39.686;2022-12-11T01:57:18;99997.09;;;-0.87;61.52
63343;BME280;49465;57.664;39.686;2022-12-11T01:59:47;99995.31;;;-0.83;61.59
63343;BME280;49465;57.664;39.686;2022-12-11T02:02:28;99998.38;;;-0.67;61.96
63343;BME280;49465;57.664;39.686;2022-12-11T02:04:58;99990.28;;;-0.16;59.79
63343;BME280;49465;57.664;39.686;2022-12-11T02:07:29;99988.19;;;-0.70;61.16
63343;BME280;49465;57.664;39.686;2022-12-11T02:10:01;99986.59;;;-0.76;61.34
63343;BME280;49465;57.664;39.686;2022-12-11T02:15:15;99994.53;;;-0.13;59.59
63343;BME280;49465;57.664;39.686;2022-12-11T02:37:08;99992.16;;;-0.21;59.81
63343;BME280;49465;57.664;39.686;2022-12-11T02:39:40;100001.09;;;-0.73;61.16
63343;BME280;49465;57.664;39.686;2022-12-11T02:42:12;99999.63;;;-0.12;59.29
63343;BME280;49465;57.664;39.686;2022-12-11T02:44:40;100013.34;;;-0.83;60.75
63343;BME280;49465;57.664;39.686;2022-12-11T02:47:14;100013.13;;;-0.74;61.49
63343;BME280;49465;57.664;39.686;2022-12-11T02:49:47;100017.66;;;-0.84;61.56
63343;BME280;49465;57.664;39.686;2022-12-11T02:52:26;99999.66;;;-0.85;61.57
63343;BME280;49465;57.664;39.686;2022-12-11T02:54:59;100001.25;;;-0.80;61.54
63343;BME280;49465;57.664;39.686;2022-12-11T02:57:53;100007.59;;;-0.57;61.12
63343;BME280;49465;57.664;39.686;2022-12-11T03:00:30;100008.31;;;-0.16;59.65
63343;BME280;49465;57.664;39.686;2022-12-11T03:03:02;100010.50;;;0.01;59.63
63343;BME280;49465;57.664;39.686;2022-12-11T03:05:33;100015.41;;;-0.60;61.03
63343;BME280;49465;57.664;39.686;2022-12-11T03:08:01;100021.03;;;-0.82;61.04
63343;BME280;49465;57.664;39.686;2022-12-11T03:10:28;100009.25;;;-0.92;61.19
63343;BME280;49465;57.664;39.686;2022-12-11T03:12:55;100024.63;;;-0.90;60.96
63343;BME280;49465;57.664;39.686;2022-12-11T03:15:48;100012.97;;;-0.66;60.95
63343;BME280;49465;57.664;39.686;2022-12-11T03:18:34;100019.00;;;-0.67;61.09
63343;BME280;49465;57.664;39.686;2022-12-11T03:21:25;100015.22;;;-0.52;60.70
63343;BME280;49465;57.664;39.686;2022-12-11T03:26:57;100009.84;;;-0.81;61.06
63343;BME280;49465;57.664;39.686;2022-12-11T03:30:12;100004.78;;;-0.12;59.56
63343;BME280;49465;57.664;39.686;2022-12-11T03:32:54;100006.72;;;-0.56;60.81
63343;BME280;49465;57.664;39.686;2022-12-11T03:38:03;100015.56;;;-0.68;61.19
63343;BME280;49465;57.664;39.686;2022-12-11T03:40:34;100019.25;;;-0.78;61.57
63343;BME280;49465;57.664;39.686;2022-12-11T03:43:05;100011.59;;;-0.83;61.17
63343;BME280;49465;57.664;39.686;2022-12-11T03:45:33;100014.44;;;-0.93;60.83
63343;BME280;49465;57.664;39.686;2022-12-11T03:48:01;100010.06;;;-0.16;59.54
63343;BME280;49465;57.664;39.686;2022-12-11T03:50:30;100013.16;;;-0.75;60.93
63343;BME280;49465;57.664;39.686;2022-12-11T03:52:58;100018.59;;;-0.88;60.99
63343;BME280;49465;57.664;39.686;2022-12-11T03:55:31;100031.31;;;-0.82;61.27
63343;BME280;49465;57.664;39.686;2022-12-11T03:58:01;100028.91;;;-0.14;59.74
63343;BME280;49465;57.664;39.686;2022-12-11T04:00:28;100033.09;;;-0.84;60.69
63343;BME280;49465;57.664;39.686;2022-12-11T04:03:00;100035.84;;;-0.93;61.16
63343;BME280;49465;57.664;39.686;2022-12-11T04:05:49;100045.69;;;-0.71;61.07
63343;BME280;49465;57.664;39.686;2022-12-11T04:08:20;100042.47;;;-0.81;60.87
63343;BME280;49465;57.664;39.686;2022-12-11T04:10:52;100048.44;;;-0.79;61.59
63343;BME280;49465;57.664;39.686;2022-12-11T04:13:41;100045.97;;;-0.84;61.06
63343;BME280;49465;57.664;39.686;2022-12-11T04:16:10;100039.06;;;-0.83;60.93
63343;BME280;49465;57.664;39.686;2022-12-11T04:18:39;100032.59;;;-1.01;61.39
63343;BME280;49465;57.664;39.686;2022-12-11T04:21:27;100042.72;;;-0.17;59.72
63343;BME280;49465;57.664;39.686;2022-12-11T04:24:11;100040.88;;;-0.87;60.84
63343;BME280;49465;57.664;39.686;2022-12-11T04:26:44;100036.66;;;-0.91;60.89
63343;BME280;49465;57.664;39.686;2022-12-11T04:29:12;100041.09;;;-0.96;61.23
63343;BME280;49465;57.664;39.686;2022-12-11T04:31:39;100046.13;;;-0.15;59.40
63343;BME280;49465;57.664;39.686;2022-12-11T04:34:12;100054.22;;;-0.69;60.69
63343;BME280;49465;57.664;39.686;2022-12-11T04:36:39;100053.06;;;-0.95;61.16
63343;BME280;49465;57.664;39.686;2022-12-11T04:39:07;100059.16;;;-0.99;61.35
63343;BME280;49465;57.664;39.686;2022-12-11T04:41:34;100062.53;;;-0.97;61.34
63343;BME280;49465;57.664;39.686;2022-12-11T04:44:05;100063.47;;;-1.00;61.45
63343;BME280;49465;57.664;39.686;2022-12-11T04:46:34;100066.84;;;-0.97;61.12
63343;BME280;49465;57.664;39.686;2022-12-11T04:49:01;100066.81;;;-0.96;61.24
63343;BME280;49465;57.664;39.686;2022-12-11T04:51:38;100069.41;;;-0.96;60.85
63343;BME280;49465;57.664;39.686;2022-12-11T04:54:10;100065.13;;;-0.98;61.09
63343;BME280;49465;57.664;39.686;2022-12-11T04:56:40;100072.63;;;-0.86;61.25
63343;BME280;49465;57.664;39.686;2022-12-11T04:59:09;100076.91;;;-0.87;61.43
63343;BME280;49465;57.664;39.686;2022-12-11T05:01:50;100083.59;;;-0.76;61.22
63343;BME280;49465;57.664;39.686;2022-12-11T05:04:16;100078.78;;;-0.95;60.96
63343;BME280;49465;57.664;39.686;2022-12-11T05:06:47;100094.13;;;-0.89;61.35
63343;BME280;49465;57.664;39.686;2022-12-11T05:09:14;100086.63;;;-1.00;60.81
63343;BME280;49465;57.664;39.686;2022-12-11T05:11:43;100079.75;;;-1.01;61.36
63343;BME280;49465;57.664;39.686;2022-12-11T05:14:18;100086.66;;;-1.01;61.40
63343;BME280;49465;57.664;39.686;2022-12-11T05:16:45;100092.59;;;-0.97;60.75
63343;BME280;49465;57.664;39.686;2022-12-11T05:19:25;100097.19;;;-0.71;60.83
63343;BME280;49465;57.664;39.686;2022-12-11T05:21:52;100094.31;;;-0.98;61.18
63343;BME280;49465;57.664;39.686;2022-12-11T05:24:18;100095.97;;;-0.95;60.97
63343;BME280;49465;57.664;39.686;2022-12-11T05:26:48;100106.34;;;-1.00;60.99
63343;BME280;49465;57.664;39.686;2022-12-11T05:29:17;100101.19;;;-1.00;60.92
63343;BME280;49465;57.664;39.686;2022-12-11T05:31:49;100101.91;;;-0.92;61.18
63343;BME280;49465;57.664;39.686;2022-12-11T05:34:19;100105.31;;;-0.90;61.13
63343;BME280;49465;57.664;39.686;2022-12-11T05:36:54;100111.81;;;-0.73;61.10
63343;BME280;49465;57.664;39.686;2022-12-11T05:39:23;100116.84;;;-0.28;59.36
63343;BME280;49465;57.664;39.686;2022-12-11T05:41:50;100117.34;;;-0.92;60.67
63343;BME280;49465;57.664;39.686;2022-12-11T05:44:21;100121.72;;;-0.97;60.38
63343;BME280;49465;57.664;39.686;2022-12-11T05:46:50;100122.50;;;-0.92;60.75
63343;BME280;49465;57.664;39.686;2022-12-11T05:49:16;100126.22;;;-0.24;59.18
63343;BME280;49465;57.664;39.686;2022-12-11T05:51:48;100123.44;;;-0.96;60.25
63343;BME280;49465;57.664;39.686;2022-12-11T05:54:18;100129.69;;;-0.25;59.19
63343;BME280;49465;57.664;39.686;2022-12-11T05:56:44;100135.28;;;-0.89;60.17
63343;BME280;49465;57.664;39.686;2022-12-11T05:59:11;100132.03;;;-0.97;60.20
63343;BME280;49465;57.664;39.686;2022-12-11T06:01:42;100143.94;;;-0.91;60.95
63343;BME280;49465;57.664;39.686;2022-12-11T06:04:18;100140.28;;;-0.80;61.16
63343;BME280;49465;57.664;39.686;2022-12-11T06:06:47;100149.28;;;-1.02;60.73
63343;BME280;49465;57.664;39.686;2022-12-11T06:09:15;100137.50;;;-0.30;59.03
63343;BME280;49465;57.664;39.686;2022-12-11T06:11:45;100141.38;;;-0.93;60.60
63343;BME280;49465;57.664;39.686;2022-12-11T06:14:19;100138.22;;;-1.06;60.91
63343;BME280;49465;57.664;39.686;2022-12-11T06:16:48;100136.47;;;-1.04;60.63
63343;BME280;49465;57.664;39.686;2022-12-11T06:19:17;100140.84;;;-0.25;59.24
63343;BME280;49465;57.664;39.686;2022-12-11T06:21:45;100142.16;;;-0.88;60.27
63343;BME280;49465;57.664;39.686;2022-12-11T06:24:14;100144.09;;;-0.99;60.38
63343;BME280;49465;57.664;39.686;2022-12-11T06:26:45;100147.47;;;-0.97;60.72
63343;BME280;49465;57.664;39.686;2022-12-11T06:29:20;100159.13;;;-0.79;60.76
63343;BME280;49465;57.664;39.686;2022-12-11T06:31:49;100157.09;;;-1.07;60.89
63343;BME280;49465;57.664;39.686;2022-12-11T06:34:15;100156.19;;;-1.04;60.31
63343;BME280;49465;57.664;39.686;2022-12-11T06:36:47;100165.44;;;-0.94;60.85
63343;BME280;49465;57.664;39.686;2022-12-11T06:39:16;100175.75;;;-0.95;60.39
63343;BME280;49465;57.664;39.686;2022-12-11T06:41:43;100187.88;;;-1.02;60.69
63343;BME280;49465;57.664;39.686;2022-12-11T06:44:09;100180.25;;;-1.05;60.31
63343;BME280;49465;57.664;39.686;2022-12-11T06:46:38;100189.94;;;-0.31;59.26
63343;BME280;49465;57.664;39.686;2022-12-11T06:49:05;100204.06;;;-0.94;60.27
63343;BME280;49465;57.664;39.686;2022-12-11T06:51:34;100209.47;;;-0.21;59.02
63343;BME280;49465;57.664;39.686;2022-12-11T06:54:01;100210.03;;;-0.92;60.49
63343;BME280;49465;57.664;39.686;2022-12-11T06:56:33;100209.28;;;-1.00;60.10
63343;BME280;49465;57.664;39.686;2022-12-11T06:58:59;100228.22;;;-1.03;60.51
63343;BME280;49465;57.664;39.686;2022-12-11T07:01:29;100229.88;;;-1.00;60.86
63343;BME280;49465;57.664;39.686;2022-12-11T07:04:01;100227.00;;;-0.83;60.44
63343;BME280;49465;57.664;39.686;2022-12-11T07:06:40;100237.44;;;-0.91;60.68
63343;BME280;49465;57.664;39.686;2022-12-11T07:09:09;100240.00;;;-0.89;60.42
63343;BME280;49465;57.664;39.686;2022-12-11T07:11:57;100232.88;;;-0.75;60.68
63343;BME280;49465;57.664;39.686;2022-12-11T07:14:24;100228.16;;;-0.98;60.27
63343;BME280;49465;57.664;39.686;2022-12-11T07:16:53;100218.94;;;-0.23;59.00
63343;BME280;49465;57.664;39.686;2022-12-11T07:19:23;100227.00;;;-0.82;60.28
63343;BME280;49465;57.664;39.686;2022-12-11T07:21:50;100226.72;;;-0.24;58.99
63343;BME280;49465;57.664;39.686;2022-12-11T07:24:19;100234.63;;;-0.78;60.55
63343;BME280;49465;57.664;39.686;2022-12-11T07:26:51;100245.09;;;-0.86;60.53
63343;BME280;49465;57.664;39.686;2022-12-11T07:29:18;100242.75;;;-1.00;60.82
63343;BME280;49465;57.664;39.686;2022-12-11T07:31:50;100246.06;;;-0.92;60.82
63343;BME280;49465;57.664;39.686;2022-12-11T07:34:20;100264.84;;;-0.88;60.92
63343;BME280;49465;57.664;39.686;2022-12-11T07:36:49;100271.72;;;-0.89;60.64
63343;BME280;49465;57.664;39.686;2022-12-11T07:39:21;100278.63;;;-0.89;60.88
63343;BME280;49465;57.664;39.686;2022-12-11T07:41:50;100271.88;;;-0.96;60.98
63343;BME280;49465;57.664;39.686;2022-12-11T07:44:19;100277.66;;;-0.84;60.77
63343;BME280;49465;57.664;39.686;2022-12-11T07:46:48;100284.53;;;-0.84;60.70
63343;BME280;49465;57.664;39.686;2022-12-11T07:49:17;100282.81;;;-0.84;60.85
63343;BME280;49465;57.664;39.686;2022-12-11T07:51:44;100282.97;;;-0.93;60.28
63343;BME280;49465;57.664;39.686;2022-12-11T07:54:16;100274.66;;;-0.15;58.88
63343;BME280;49465;57.664;39.686;2022-12-11T07:56:49;100279.31;;;-0.81;60.26
63343;BME280;49465;57.664;39.686;2022-12-11T07:59:21;100275.78;;;-0.74;60.27
63343;BME280;49465;57.664;39.686;2022-12-11T08:01:50;100279.31;;;-0.80;60.95
63343;BME280;49465;57.664;39.686;2022-12-11T08:04:22;100286.94;;;-0.75;60.58
63343;BME280;49465;57.664;39.686;2022-12-11T08:06:51;100276.88;;;-0.87;60.30
63343;BME280;49465;57.664;39.686;2022-12-11T08:09:20;100289.84;;;-0.93;60.99
63343;BME280;49465;57.664;39.686;2022-12-11T08:11:50;100284.91;;;-0.14;59.36
63343;BME280;49465;57.664;39.686;2022-12-11T08:14:17;100284.41;;;-0.76;60.06
63343;BME280;49465;57.664;39.686;2022-12-11T08:16:46;100284.28;;;-0.70;60.32
63343;BME280;49465;57.664;39.686;2022-12-11T08:19:15;100269.94;;;-0.84;60.60
63343;BME280;49465;57.664;39.686;2022-12-11T08:21:45;100271.41;;;-0.70;60.62
63343;BME280;49465;57.664;39.686;2022-12-11T08:24:17;100273.19;;;-0.72;60.85
63343;BME280;49465;57.664;39.686;2022-12-11T08:26:46;100274.13;;;-0.76;60.59
63343;BME280;49465;57.664;39.686;2022-12-11T08:29:13;100266.41;;;-0.78;60.77
63343;BME280;49465;57.664;39.686;2022-12-11T08:31:40;100275.78;;;-0.74;60.49
63343;BME280;49465;57.664;39.686;2022-12-11T08:34:10;100279.16;;;-0.70;60.59
63343;BME280;49465;57.664;39.686;2022-12-11T08:36:50;100279.56;;;-0.47;60.25
63343;BME280;49465;57.664;39.686;2022-12-11T08:39:21;100285.00;;;-0.62;60.17
63343;BME280;49465;57.664;39.686;2022-12-11T08:41:50;100279.78;;;-0.59;60.39
63343;BME280;49465;57.664;39.686;2022-12-11T08:44:20;100284.94;;;-0.59;60.00
63343;BME280;49465;57.664;39.686;2022-12-11T08:46:59;100293.13;;;-0.38;60.20
63343;BME280;49465;57.664;39.686;2022-12-11T08:49:28;100290.84;;;-0.52;59.96
63343;BME280;49465;57.664;39.686;2022-12-11T08:51:57;100286.63;;;-0.56;59.97
63343;BME280;49465;57.664;39.686;2022-12-11T08:54:26;100285.75;;;-0.57;60.35
63343;BME280;49465;57.664;39.686;2022-12-11T08:56:56;100290.00;;;-0.53;60.44
63343;BME280;49465;57.664;39.686;2022-12-11T08:59:22;100288.56;;;-0.69;60.70
63343;BME280;49465;57.664;39.686;2022-12-11T09:01:53;100286.75;;;-0.64;60.39
63343;BME280;49465;57.664;39.686;2022-12-11T09:04:22;100298.56;;;-0.52;59.87
63343;BME280;49465;57.664;39.686;2022-12-11T09:06:49;100298.13;;;0.13;59.13
63343;BME280;49465;57.664;39.686;2022-12-11T09:09:18;100294.88;;;-0.39;59.73
63343;BME280;49465;57.664;39.686;2022-12-11T09:11:49;100301.13;;;-0.52;59.79
63343;BME280;49465;57.664;39.686;2022-12-11T09:14:22;100303.47;;;-0.40;59.68
63343;BME280;49465;57.664;39.686;2022-12-11T09:16:49;100308.75;;;-0.48;59.46
63343;BME280;49465;57.664;39.686;2022-12-11T09:19:15;100307.16;;;-0.53;59.67
63343;BME280;49465;57.664;39.686;2022-12-11T09:21:43;100316.56;;;-0.51;59.92
63343;BME280;49465;57.664;39.686;2022-12-11T09:24:13;100320.66;;;-0.41;59.75
63343;BME280;49465;57.664;39.686;2022-12-11T09:26:40;100327.91;;;0.28;58.77
63343;BME280;49465;57.664;39.686;2022-12-11T09:29:13;100328.94;;;-0.25;59.33
63343;BME280;49465;57.664;39.686;2022-12-11T09:31:42;100338.72;;;-0.42;59.33
63343;BME280;49465;57.664;39.686;2022-12-11T09:34:11;100346.34;;;-0.36;59.13
63343;BME280;49465;57.664;39.686;2022-12-11T09:36:38;100349.03;;;-0.44;59.52
63343;BME280;49465;57.664;39.686;2022-12-11T09:39:15;100360.69;;;-0.23;59.61
63343;BME280;49465;57.664;39.686;2022-12-11T09:41:58;100353.06;;;-0.27;59.71
63343;BME280;49465;57.664;39.686;2022-12-11T09:44:59;100361.06;;;0.03;59.22
63343;BME280;49465;57.664;39.686;2022-12-11T09:47:41;100346.03;;;-0.19;59.81
63343;BME280;49465;57.664;39.686;2022-12-11T09:50:21;100359.81;;;-0.22;59.51
63343;BME280;49465;57.664;39.686;2022-12-11T09:55:46;100362.44;;;-0.25;59.06
63343;BME280;49465;57.664;39.686;2022-12-11T10:06:29;100376.00;;;-0.13;58.69
63343;BME280;49465;57.664;39.686;2022-12-11T10:09:32;100379.28;;;-0.07;58.94
63343;BME280;49465;57.664;39.686;2022-12-11T10:12:18;100368.94;;;-0.04;59.13
63343;BME280;49465;57.664;39.686;2022-12-11T10:15:25;100380.84;;;0.02;58.84
63343;BME280;49465;57.664;39.686;2022-12-11T10:18:03;100383.19;;;-0.31;58.88
63343;BME280;49465;57.664;39.686;2022-12-11T10:20:34;100388.25;;;-0.26;59.02
63343;BME280;49465;57.664;39.686;2022-12-11T10:23:08;100391.63;;;-0.23;59.23
63343;BME280;49465;57.664;39.686;2022-12-11T10:26:05;100398.94;;;-0.01;58.79
63343;BME280;49465;57.664;39.686;2022-12-11T10:28:35;100411.25;;;-0.15;58.82
63343;BME280;49465;57.664;39.686;2022-12-11T10:31:17;100419.47;;;0.04;58.76
63343;BME280;49465;57.664;39.686;2022-12-11T10:34:02;100418.06;;;-0.11;58.95
63343;BME280;49465;57.664;39.686;2022-12-11T10:36:36;100418.94;;;-0.14;59.10
63343;BME280;49465;57.664;39.686;2022-12-11T10:39:10;100420.34;;;0.48;58.20
63343;BME280;49465;57.664;39.686;2022-12-11T10:41:39;100425.81;;;-0.13;58.79
63343;BME280;49465;57.664;39.686;2022-12-11T10:47:12;100431.34;;;0.14;58.61
63343;BME280;49465;57.664;39.686;2022-12-11T10:49:58;100432.31;;;0.07;58.83
63343;BME280;49465;57.664;39.686;2022-12-11T10:52:32;100422.25;;;-0.06;58.52
63343;BME280;49465;57.664;39.686;2022-12-11T10:55:26;100424.00;;;-0.08;58.95
63343;BME280;49465;57.664;39.686;2022-12-11T10:58:01;100412.81;;;-0.08;58.69
63343;BME280;49465;57.664;39.686;2022-12-11T11:03:01;100427.72;;;-0.24;58.60
63343;BME280;49465;57.664;39.686;2022-12-11T11:05:38;100427.44;;;-0.07;58.98
63343;BME280;49465;57.664;39.686;2022-12-11T11:08:14;100435.09;;;-0.04;58.92
63343;BME280;49465;57.664;39.686;2022-12-11T11:11:00;100424.50;;;0.55;57.72
63343;BME280;49465;57.664;39.686;2022-12-11T11:13:30;100425.66;;;-0.04;58.67
63343;BME280;49465;57.664;39.686;2022-12-11T11:16:10;100424.59;;;0.07;58.40
63343;BME280;49465;57.664;39.686;2022-12-11T11:18:39;100424.28;;;-0.23;58.62
63343;BME280;49465;57.664;39.686;2022-12-11T11:21:15;100425.56;;;-0.01;58.51
63343;BME280;49465;57.664;39.686;2022-12-11T11:23:43;100429.00;;;0.45;58.23
63343;BME280;49465;57.664;39.686;2022-12-11T11:26:11;100429.34;;;-0.18;58.36
63343;BME280;49465;57.664;39.686;2022-12-11T11:28:41;100433.63;;;-0.17;58.72
63343;BME280;49465;57.664;39.686;2022-12-11T11:31:14;100445.78;;;-0.26;58.51
63343;BME280;49465;57.664;39.686;2022-12-11T11:33:57;100452.31;;;-0.06;58.29
63343;BME280;49465;57.664;39.686;2022-12-11T11:36:30;100455.56;;;0.49;57.74
63343;BME280;49465;57.664;39.686;2022-12-11T11:39:07;100454.72;;;0.05;58.17
63343;BME280;49465;57.664;39.686;2022-12-11T11:45:04;100456.22;;;0.15;58.18
63343;BME280;49465;57.664;39.686;2022-12-11T11:47:38;100458.50;;;-0.15;58.18
63343;BME280;49465;57.664;39.686;2022-12-11T11:50:15;100465.38;;;-0.15;58.62
63343;BME280;49465;57.664;39.686;2022-12-11T11:58:19;100463.69;;;-0.18;58.66
63343;BME280;49465;57.664;39.686;2022-12-11T12:00:58;100462.94;;;-0.23;58.67
63343;BME280;49465;57.664;39.686;2022-12-11T12:03:28;100470.66;;;-0.22;58.34
63343;BME280;49465;57.664;39.686;2022-12-11T12:09:14;100473.25;;;-0.25;58.03
63343;BME280;49465;57.664;39.686;2022-12-11T12:11:58;100476.41;;;-0.09;58.20
63343;BME280;49465;57.664;39.686;2022-12-11T12:14:42;100479.94;;;-0.13;58.23
63343;BME280;49465;57.664;39.686;2022-12-11T12:26:14;100487.91;;;-0.28;57.80
63343;BME280;49465;57.664;39.686;2022-12-11T12:31:50;100492.00;;;-0.15;58.29
63343;BME280;49465;57.664;39.686;2022-12-11T12:45:50;100505.72;;;-0.13;58.40
63343;BME280;49465;57.664;39.686;2022-12-11T12:48:24;100517.31;;;-0.40;58.44
63343;BME280;49465;57.664;39.686;2022-12-11T12:50:52;100511.56;;;-0.57;58.62
63343;BME280;49465;57.664;39.686;2022-12-11T12:53:24;100507.81;;;0.15;57.76
63343;BME280;49465;57.664;39.686;2022-12-11T12:55:52;100505.47;;;-0.52;58.30
63343;BME280;49465;57.664;39.686;2022-12-11T13:04:22;100508.38;;;-0.17;58.61
63343;BME280;49465;57.664;39.686;2022-12-11T13:06:54;100509.00;;;-0.59;58.59
63343;BME280;49465;57.664;39.686;2022-12-11T13:09:26;100516.78;;;-0.61;58.41
63343;BME280;49465;57.664;39.686;2022-12-11T13:11:56;100521.97;;;-0.65;58.29
63343;BME280;49465;57.664;39.686;2022-12-11T13:14:27;100512.41;;;-0.57;58.70
63343;BME280;49465;57.664;39.686;2022-12-11T13:19:49;100533.16;;;-0.65;58.45
63343;BME280;49465;57.664;39.686;2022-12-11T13:22:22;100539.78;;;0.05;57.59
63343;BME280;49465;57.664;39.686;2022-12-11T13:24:58;100549.13;;;-0.41;58.32
63343;BME280;49465;57.664;39.686;2022-12-11T13:27:39;100550.94;;;0.07;57.25
63343;BME280;49465;57.664;39.686;2022-12-11T13:33:05;100569.66;;;-0.36;58.28
63343;BME280;49465;57.664;39.686;2022-12-11T13:35:35;100575.38;;;-0.78;58.12
63343;BME280;49465;57.664;39.686;2022-12-11T13:38:28;100569.91;;;0.03;57.58
63343;BME280;49465;57.664;39.686;2022-12-11T13:40:55;100570.13;;;-0.70;58.20
63343;BME280;49465;57.664;39.686;2022-12-11T13:43:32;100574.38;;;-0.07;57.63
63343;BME280;49465;57.664;39.686;2022-12-11T13:46:09;100565.56;;;-0.51;57.97
63343;BME280;49465;57.664;39.686;2022-12-11T13:48:49;100563.88;;;-0.54;58.31
63343;BME280;49465;57.664;39.686;2022-12-11T13:51:22;100556.50;;;-0.78;58.02
63343;BME280;49465;57.664;39.686;2022-12-11T13:54:00;100563.31;;;-0.15;57.60
63343;BME280;49465;57.664;39.686;2022-12-11T13:56:35;100551.38;;;-0.80;57.92
63343;BME280;49465;57.664;39.686;2022-12-11T13:59:02;100555.81;;;-0.90;58.56
63343;BME280;49465;57.664;39.686;2022-12-11T14:01:33;100555.72;;;-0.85;58.53
63343;BME280;49465;57.664;39.686;2022-12-11T14:04:10;100559.88;;;-0.75;58.67
63343;BME280;49465;57.664;39.686;2022-12-11T14:06:46;100549.00;;;-0.94;58.09
63343;BME280;49465;57.664;39.686;2022-12-11T14:09:18;100536.84;;;-0.84;58.39
63343;BME280;49465;57.664;39.686;2022-12-11T14:11:46;100529.31;;;-0.98;58.24
63343;BME280;49465;57.664;39.686;2022-12-11T14:14:39;100546.81;;;-0.61;58.02
63343;BME280;49465;57.664;39.686;2022-12-11T14:17:13;100535.16;;;-0.88;58.84
63343;BME280;49465;57.664;39.686;2022-12-11T14:19:47;100525.69;;;-0.85;58.37
63343;BME280;49465;57.664;39.686;2022-12-11T14:22:23;100523.09;;;-0.82;58.28
63343;BME280;49465;57.664;39.686;2022-12-11T14:24:55;100512.06;;;-0.93;58.40
63343;BME280;49465;57.664;39.686;2022-12-11T14:27:23;100520.78;;;-1.02;58.69
63343;BME280;49465;57.664;39.686;2022-12-11T14:29:51;100514.00;;;-1.10;58.17
63343;BME280;49465;57.664;39.686;2022-12-11T14:32:41;100528.03;;;-0.69;58.18
63343;BME280;49465;57.664;39.686;2022-12-11T14:35:37;100523.09;;;-0.85;58.06
63343;BME280;49465;57.664;39.686;2022-12-11T14:38:21;100518.94;;;-0.92;58.38
63343;BME280;49465;57.664;39.686;2022-12-11T14:40:50;100507.81;;;-0.36;57.24
63343;BME280;49465;57.664;39.686;2022-12-11T14:43:32;100509.31;;;-0.81;57.97